Time;durP1;ratioP1;P1;durP2;ratioP2;P2;SDS_P1;SDS_P2;PMS_P1;PMS_P2;Temp;Humidity;BMP_temperature;BMP_pressure;BME280_temperature;BME280_humidity;BME280_pressure;Samples;Min_cycle;Max_cycle;Signal;HPM_P1;HPM_P2
2022/01/19 05:04:11;;;;;;;27.27;17.00;;;1.00;99.90;;;;;;5015016;28;20421;-67
2022/01/19 05:06:42;;;;;;;23.90;18.50;;;1.10;99.90;;;;;;5015136;28;20434;-68
2022/01/19 05:09:23;;;;;;;20.40;16.73;;;1.00;99.90;;;;;;5015044;28;20528;-68
2022/01/19 05:14:34;;;;;;;25.70;18.27;;;0.90;99.90;;;;;;5015579;28;20792;-68
2022/01/19 05:17:02;;;;;;;25.30;19.33;;;0.80;99.90;;;;;;5014677;28;20941;-68
2022/01/19 05:19:29;;;;;;;46.97;36.27;;;0.90;99.90;;;;;;5014831;28;20457;-67
2022/01/19 05:21:55;;;;;;;39.47;28.00;;;1.10;99.90;;;;;;5015111;28;20476;-68
2022/01/19 05:24:22;;;;;;;28.90;23.50;;;1.40;99.90;;;;;;5015038;28;20819;-69
2022/01/19 05:26:51;;;;;;;24.90;19.13;;;1.70;99.90;;;;;;5015229;28;20457;-68
2022/01/19 05:29:18;;;;;;;28.47;20.80;;;1.80;99.90;;;;;;5015034;28;20463;-67
2022/01/19 05:31:45;;;;;;;26.07;19.10;;;1.70;99.90;;;;;;5014938;28;20485;-67
2022/01/19 05:34:13;;;;;;;25.70;19.67;;;1.70;99.90;;;;;;5015051;28;20457;-68
2022/01/19 05:36:40;;;;;;;20.50;17.30;;;1.70;99.90;;;;;;5015735;28;20460;-68
2022/01/19 05:39:06;;;;;;;22.30;16.83;;;1.80;99.90;;;;;;5018159;28;20460;-68
2022/01/19 05:41:33;;;;;;;21.60;17.37;;;1.80;99.90;;;;;;5015845;28;20831;-68
2022/01/19 05:44:00;;;;;;;25.63;18.47;;;1.80;99.90;;;;;;5015062;28;20468;-68
2022/01/19 05:46:27;;;;;;;25.87;19.60;;;1.70;99.90;;;;;;5015228;28;20460;-67
2022/01/19 05:48:54;;;;;;;34.90;27.00;;;1.50;99.90;;;;;;5015017;28;20453;-67
2022/01/19 05:51:22;;;;;;;35.40;26.90;;;1.30;99.90;;;;;;5014924;28;20855;-67
2022/01/19 05:53:49;;;;;;;33.63;24.13;;;1.20;99.90;;;;;;5015248;28;20458;-69
2022/01/19 05:56:15;;;;;;;36.10;24.20;;;1.10;99.90;;;;;;5014827;28;20457;-68
2022/01/19 05:58:42;;;;;;;31.83;23.97;;;1.10;99.90;;;;;;5015035;28;20453;-68
2022/01/19 06:01:09;;;;;;;29.67;21.27;;;1.10;99.90;;;;;;5014706;28;20477;-67
2022/01/19 06:03:35;;;;;;;33.67;21.40;;;1.10;99.90;;;;;;5014995;28;20461;-68
2022/01/19 06:06:03;;;;;;;30.20;21.23;;;1.20;99.90;;;;;;5014932;28;20472;-67
2022/01/19 06:08:41;;;;;;;27.97;21.17;;;1.20;99.90;;;;;;5015564;28;20491;-68
2022/01/19 06:11:08;;;;;;;25.47;20.03;;;1.20;99.90;;;;;;5014478;28;20983;-66
2022/01/19 06:13:35;;;;;;;25.73;20.40;;;1.20;99.90;;;;;;5014406;28;20940;-68
2022/01/19 06:16:02;;;;;;;26.43;20.77;;;1.20;99.90;;;;;;5014697;28;20479;-68
2022/01/19 06:18:29;;;;;;;32.27;20.57;;;1.10;99.90;;;;;;5015704;28;20479;-68
2022/01/19 06:20:56;;;;;;;25.67;19.07;;;1.10;99.90;;;;;;5015328;28;20476;-67
2022/01/19 06:23:23;;;;;;;27.43;19.27;;;1.20;99.90;;;;;;5014690;28;20453;-68
2022/01/19 06:25:51;;;;;;;25.50;20.53;;;1.20;99.90;;;;;;5014915;28;20464;-67
2022/01/19 06:28:18;;;;;;;29.67;19.60;;;1.20;99.90;;;;;;5015161;28;20816;-68
2022/01/19 06:30:45;;;;;;;27.57;20.17;;;1.10;99.90;;;;;;5014237;28;20488;-67
2022/01/19 06:33:12;;;;;;;23.80;19.27;;;1.10;99.90;;;;;;5014947;28;20537;-67
2022/01/19 06:35:38;;;;;;;22.40;19.17;;;1.10;99.90;;;;;;5014440;28;20456;-67
2022/01/19 06:38:05;;;;;;;26.30;18.17;;;1.10;99.90;;;;;;5015530;28;20454;-67
2022/01/19 06:40:32;;;;;;;23.53;17.93;;;1.10;99.90;;;;;;5015042;28;20842;-68
2022/01/19 06:43:00;;;;;;;25.57;18.93;;;1.10;99.90;;;;;;5015967;28;20460;-67
2022/01/19 06:45:27;;;;;;;24.93;18.13;;;1.00;99.90;;;;;;5018755;28;20457;-67
2022/01/19 06:47:54;;;;;;;28.70;19.67;;;1.00;99.90;;;;;;5018422;28;20460;-68
2022/01/19 06:50:21;;;;;;;26.67;18.77;;;0.90;99.90;;;;;;5018002;28;20457;-66
2022/01/19 06:52:49;;;;;;;27.33;19.50;;;0.90;99.90;;;;;;5018066;28;20453;-67
2022/01/19 06:55:17;;;;;;;30.80;19.20;;;0.80;99.90;;;;;;5018048;28;20818;-67
2022/01/19 06:57:44;;;;;;;24.43;20.37;;;0.80;99.90;;;;;;5018169;28;20460;-67
2022/01/19 07:00:14;;;;;;;25.57;18.87;;;0.80;99.90;;;;;;5018367;28;20457;-70
2022/01/19 07:02:41;;;;;;;23.57;20.33;;;0.90;99.90;;;;;;5018063;28;20456;-67
2022/01/19 07:05:08;;;;;;;27.00;19.87;;;0.90;99.90;;;;;;5018020;28;20457;-67
2022/01/19 07:07:35;;;;;;;25.60;20.47;;;0.80;99.90;;;;;;5017933;28;20457;-66
2022/01/19 07:10:03;;;;;;;29.67;22.07;;;0.80;99.90;;;;;;5024893;28;20460;-68
2022/01/19 07:12:29;;;;;;;31.07;22.17;;;0.80;99.90;;;;;;5030206;28;20477;-68
2022/01/19 07:14:56;;;;;;;32.70;22.90;;;0.80;99.90;;;;;;5023937;28;20445;-66
2022/01/19 07:17:24;;;;;;;28.47;19.87;;;0.80;99.90;;;;;;5019421;28;20790;-67
2022/01/19 07:19:51;;;;;;;25.30;20.67;;;0.90;99.90;;;;;;5020171;28;20804;-67
2022/01/19 07:22:18;;;;;;;29.37;20.30;;;0.90;99.90;;;;;;5017558;28;20477;-67
2022/01/19 07:24:45;;;;;;;29.27;20.77;;;0.90;99.90;;;;;;5017111;28;20457;-66
2022/01/19 07:27:12;;;;;;;28.00;20.87;;;0.90;99.90;;;;;;5017218;28;20464;-66
2022/01/19 07:29:39;;;;;;;30.93;20.87;;;1.00;99.90;;;;;;5017898;28;20441;-68
2022/01/19 07:32:06;;;;;;;27.87;21.30;;;1.00;99.90;;;;;;5017686;28;20492;-68
2022/01/19 07:34:34;;;;;;;31.07;21.80;;;1.10;99.90;;;;;;5017951;28;20482;-67
2022/01/19 07:37:02;;;;;;;28.50;20.90;;;1.20;99.90;;;;;;5018458;28;20454;-67
2022/01/19 07:39:29;;;;;;;33.23;20.80;;;1.30;99.90;;;;;;5017792;28;20459;-67
2022/01/19 07:41:56;;;;;;;27.77;19.30;;;1.40;99.90;;;;;;5017184;28;20474;-67
2022/01/19 07:44:23;;;;;;;23.40;19.53;;;1.70;99.90;;;;;;5017524;28;20454;-67
2022/01/19 07:46:51;;;;;;;21.37;17.90;;;1.90;99.90;;;;;;5017300;28;20956;-68
2022/01/19 07:49:18;;;;;;;23.93;18.23;;;2.30;99.90;;;;;;5017997;28;20963;-69
2022/01/19 07:51:46;;;;;;;23.97;17.27;;;2.80;99.90;;;;;;5016617;28;20480;-68
2022/01/19 07:54:13;;;;;;;20.27;15.77;;;3.30;99.90;;;;;;5017791;28;20450;-68
2022/01/19 07:56:40;;;;;;;20.37;14.17;;;3.90;99.90;;;;;;5018162;28;20465;-68
2022/01/19 07:59:07;;;;;;;23.47;15.27;;;4.50;99.90;;;;;;5017714;28;20944;-69
2022/01/19 08:01:33;;;;;;;20.77;14.63;;;5.00;99.90;;;;;;5017398;28;20485;-68
2022/01/19 08:04:00;;;;;;;19.23;14.60;;;5.30;99.90;;;;;;5018099;28;20477;-68
2022/01/19 08:06:27;;;;;;;17.70;13.80;;;5.80;99.90;;;;;;5017538;28;20453;-68
2022/01/19 08:08:56;;;;;;;13.93;12.43;;;6.30;99.90;;;;;;5017345;28;20456;-68
2022/01/19 08:11:23;;;;;;;15.83;13.10;;;6.80;99.90;;;;;;5017474;28;20488;-69
2022/01/19 08:13:50;;;;;;;16.30;14.43;;;7.30;99.90;;;;;;5016728;28;20544;-68
2022/01/19 08:16:17;;;;;;;15.50;12.80;;;7.90;99.90;;;;;;5016450;28;20457;-69
2022/01/19 08:18:43;;;;;;;17.43;14.70;;;8.50;99.90;;;;;;5016874;28;20457;-68
2022/01/19 08:21:10;;;;;;;17.30;13.23;;;9.00;99.90;;;;;;5016541;28;20831;-68
2022/01/19 08:23:37;;;;;;;18.00;13.93;;;9.50;99.90;;;;;;5016837;28;20467;-68
2022/01/19 08:26:05;;;;;;;14.90;13.40;;;10.20;99.90;;;;;;5017362;28;20462;-68
2022/01/19 08:28:32;;;;;;;16.97;14.93;;;10.80;99.90;;;;;;5016757;28;20481;-67
2022/01/19 08:30:59;;;;;;;15.03;13.53;;;11.30;99.90;;;;;;5015945;28;20820;-68
2022/01/19 08:33:26;;;;;;;17.17;13.93;;;11.80;99.90;;;;;;5016607;28;20459;-68
2022/01/19 08:35:52;;;;;;;16.23;13.37;;;12.50;98.30;;;;;;5015997;28;20455;-68
2022/01/19 08:38:19;;;;;;;17.30;13.67;;;13.00;96.00;;;;;;5015823;28;20948;-68
2022/01/19 08:40:46;;;;;;;17.93;13.60;;;13.40;94.60;;;;;;5015850;28;20472;-68
2022/01/19 08:43:14;;;;;;;18.80;13.30;;;13.50;92.30;;;;;;5017778;28;20460;-68
2022/01/19 08:45:41;;;;;;;15.53;13.53;;;13.90;91.90;;;;;;5016963;28;20481;-69
2022/01/19 08:48:08;;;;;;;19.57;15.30;;;14.00;90.10;;;;;;5016318;28;20461;-68
2022/01/19 08:50:35;;;;;;;18.93;14.80;;;14.10;89.80;;;;;;5016340;28;20492;-68
2022/01/19 08:53:02;;;;;;;19.87;14.40;;;13.90;88.50;;;;;;5016308;28;20809;-68
2022/01/19 08:55:29;;;;;;;14.97;13.40;;;13.30;87.60;;;;;;5015217;28;20932;-69
2022/01/19 08:57:56;;;;;;;15.43;13.57;;;12.80;91.30;;;;;;5015250;28;20923;-68
2022/01/19 09:00:24;;;;;;;15.80;14.10;;;11.80;90.70;;;;;;5015373;28;20780;-68
2022/01/19 09:02:51;;;;;;;15.57;13.87;;;11.90;91.90;;;;;;5016190;28;20438;-68
2022/01/19 09:05:18;;;;;;;16.27;13.53;;;12.40;91.40;;;;;;5014671;28;20457;-68
2022/01/19 09:07:45;;;;;;;15.83;14.10;;;12.60;90.50;;;;;;5015175;28;20465;-68
2022/01/19 09:10:13;;;;;;;17.97;14.70;;;12.00;90.70;;;;;;5015081;28;20464;-68
2022/01/19 09:12:40;;;;;;;16.40;13.57;;;12.20;90.30;;;;;;5015257;28;20479;-69
2022/01/19 09:15:09;;;;;;;15.13;13.67;;;12.20;91.20;;;;;;5014840;28;20940;-68
2022/01/19 09:17:39;;;;;;;13.80;12.27;;;12.20;91.70;;;;;;5015077;28;20461;-68
2022/01/19 09:20:08;;;;;;;15.23;13.50;;;13.40;90.70;;;;;;5014384;28;20434;-68
2022/01/19 09:22:35;;;;;;;15.97;14.37;;;13.60;89.10;;;;;;5014446;28;20972;-69
2022/01/19 09:25:03;;;;;;;16.00;14.00;;;12.80;88.40;;;;;;5015051;28;20459;-68
2022/01/19 09:27:30;;;;;;;21.67;14.93;;;12.40;90.10;;;;;;5016654;28;20457;-69
2022/01/19 09:29:56;;;;;;;17.17;14.70;;;11.20;91.40;;;;;;5015707;28;20869;-69
2022/01/19 09:32:24;;;;;;;16.43;13.67;;;10.40;93.70;;;;;;5014408;28;20481;-68
2022/01/19 09:34:56;;;;;;;16.53;14.83;;;9.50;96.10;;;;;;5014711;28;20558;-68
2022/01/19 09:37:24;;;;;;;17.47;15.60;;;8.90;97.50;;;;;;5014538;28;20899;-69
2022/01/19 09:39:50;;;;;;;17.20;14.83;;;8.50;99.40;;;;;;5014311;28;20464;-69
2022/01/19 09:42:17;;;;;;;17.93;14.40;;;8.00;99.90;;;;;;5014583;28;20474;-69
2022/01/19 09:44:44;;;;;;;17.00;14.90;;;7.60;99.90;;;;;;5014596;28;20466;-68
2022/01/19 09:47:11;;;;;;;17.67;15.87;;;7.60;99.90;;;;;;5014289;28;20971;-68
2022/01/19 09:49:37;;;;;;;14.23;12.73;;;7.80;99.90;;;;;;5014600;28;20455;-69
2022/01/19 09:52:06;;;;;;;15.23;13.60;;;8.50;99.90;;;;;;5014052;28;20839;-69
2022/01/19 09:54:33;;;;;;;15.33;13.83;;;9.60;99.90;;;;;;5014570;28;20820;-68
2022/01/19 09:57:00;;;;;;;14.03;12.80;;;10.70;99.90;;;;;;5014571;28;20454;-68
2022/01/19 09:59:27;;;;;;;14.13;12.73;;;11.10;97.20;;;;;;5019701;28;20841;-68
2022/01/19 10:01:55;;;;;;;15.73;14.13;;;12.70;96.00;;;;;;5016588;28;20484;-68
2022/01/19 10:04:25;;;;;;;14.57;13.20;;;13.50;92.00;;;;;;5017718;28;20964;-68
2022/01/19 10:07:11;;;;;;;15.40;13.70;;;14.70;90.30;;;;;;5014568;28;20452;-68
2022/01/19 10:09:51;;;;;;;14.20;12.80;;;16.10;83.80;;;;;;5017265;28;20447;-68
2022/01/19 10:18:07;;;;;;;13.97;12.40;;;17.10;74.00;;;;;;5015600;28;20931;-68
2022/01/19 10:20:33;;;;;;;15.23;13.83;;;16.50;72.40;;;;;;5019608;28;20504;-68
2022/01/19 10:23:01;;;;;;;14.20;12.63;;;15.40;74.00;;;;;;5019852;28;20463;-67
2022/01/19 10:25:48;;;;;;;14.13;12.70;;;13.90;75.50;;;;;;5018131;28;20458;-69
2022/01/19 10:28:15;;;;;;;13.83;12.43;;;12.60;79.90;;;;;;5018350;28;20500;-68
2022/01/19 10:30:42;;;;;;;15.70;14.13;;;12.10;85.30;;;;;;5017752;28;20498;-68
2022/01/19 10:33:08;;;;;;;15.87;14.30;;;12.00;86.30;;;;;;5018058;28;20472;-68
2022/01/19 10:35:37;;;;;;;15.20;13.70;;;12.00;86.90;;;;;;5018033;28;20460;-67
2022/01/19 10:38:15;;;;;;;14.30;12.80;;;12.60;87.30;;;;;;5018770;28;20480;-68
2022/01/19 10:40:44;;;;;;;15.10;13.50;;;12.90;85.70;;;;;;5018137;28;20843;-68
2022/01/19 10:43:31;;;;;;;16.57;13.13;;;13.50;83.40;;;;;;5018061;28;20454;-68
2022/01/19 10:46:00;;;;;;;14.33;12.97;;;13.60;80.10;;;;;;5018349;28;20441;-68
2022/01/19 10:48:38;;;;;;;14.10;12.80;;;14.50;80.10;;;;;;5017713;28;20460;-68
2022/01/19 10:51:09;;;;;;;15.70;13.90;;;15.40;77.90;;;;;;5017293;28;20996;-67
2022/01/19 10:53:38;;;;;;;13.33;11.30;;;14.60;75.40;;;;;;5017881;28;20877;-68
2022/01/19 10:56:06;;;;;;;12.80;11.60;;;14.30;77.70;;;;;;5018534;28;20465;-68
2022/01/19 10:58:34;;;;;;;14.10;12.80;;;14.20;79.70;;;;;;5017615;28;20827;-69
2022/01/19 11:01:01;;;;;;;14.37;11.63;;;14.70;78.40;;;;;;5017298;28;20890;-69
2022/01/19 11:03:30;;;;;;;12.63;11.60;;;14.60;77.70;;;;;;5017422;28;20452;-68
2022/01/19 11:05:58;;;;;;;14.73;12.13;;;14.10;78.50;;;;;;5016944;28;20459;-68
2022/01/19 11:08:28;;;;;;;11.87;10.67;;;13.60;80.50;;;;;;5017081;28;20468;-68
2022/01/19 11:10:58;;;;;;;10.57;9.57;;;12.90;82.30;;;;;;5017239;28;20553;-68
2022/01/19 11:13:29;;;;;;;9.73;8.73;;;12.30;82.60;;;;;;5016687;28;20481;-68
2022/01/19 11:15:57;;;;;;;11.27;10.07;;;11.80;85.40;;;;;;5017067;28;20466;-68
2022/01/19 11:18:25;;;;;;;10.50;9.50;;;11.30;86.90;;;;;;5017071;28;20456;-67
2022/01/19 11:20:53;;;;;;;10.60;9.60;;;10.50;89.60;;;;;;5017435;28;20556;-69
2022/01/19 11:23:30;;;;;;;12.33;10.57;;;9.70;92.40;;;;;;5017521;28;20567;-68
2022/01/19 11:26:01;;;;;;;13.23;11.87;;;9.10;94.10;;;;;;5017019;28;20442;-68
2022/01/19 11:28:34;;;;;;;16.70;12.33;;;8.60;96.50;;;;;;5016072;28;20923;-69
2022/01/19 11:31:03;;;;;;;14.20;11.53;;;8.10;98.90;;;;;;5016748;28;20477;-68
2022/01/19 11:33:30;;;;;;;13.47;12.00;;;7.80;99.90;;;;;;5016770;28;20477;-68
2022/01/19 11:36:00;;;;;;;12.33;11.00;;;7.90;99.90;;;;;;5017005;28;20819;-67
2022/01/19 11:38:46;;;;;;;14.63;11.60;;;7.80;99.90;;;;;;5017253;28;20803;-68
2022/01/19 11:41:38;;;;;;;13.10;10.67;;;7.70;99.90;;;;;;5018833;28;20477;-69
2022/01/19 11:44:07;;;;;;;13.57;10.87;;;7.80;99.90;;;;;;5017327;28;20508;-69
2022/01/19 11:46:39;;;;;;;13.13;10.50;;;7.70;99.90;;;;;;5018153;28;20457;-68
2022/01/19 11:49:07;;;;;;;11.13;10.03;;;7.80;99.90;;;;;;5018245;28;20933;-67
2022/01/19 11:51:36;;;;;;;13.00;10.73;;;7.60;99.90;;;;;;5016214;28;20493;-68
2022/01/19 11:54:10;;;;;;;11.90;10.70;;;7.40;99.90;;;;;;5015930;28;20960;-69
2022/01/19 11:57:10;;;;;;;13.33;10.67;;;7.30;99.90;;;;;;5016442;28;20533;-67
2022/01/19 12:00:06;;;;;;;13.43;10.70;;;7.30;99.90;;;;;;5015909;28;20945;-68
2022/01/19 12:02:37;;;;;;;12.90;10.33;;;7.10;99.90;;;;;;5015915;28;21002;-68
2022/01/19 12:05:17;;;;;;;12.20;10.90;;;6.90;99.90;;;;;;5016687;28;20433;-67
2022/01/19 12:07:45;;;;;;;13.10;10.70;;;6.80;99.90;;;;;;5016443;28;20439;-66
2022/01/19 12:10:19;;;;;;;11.00;9.87;;;6.80;99.90;;;;;;5016132;28;20456;-68
2022/01/19 12:13:26;;;;;;;11.27;10.07;;;7.00;99.90;;;;;;5016231;28;20800;-67
2022/01/19 12:15:58;;;;;;;11.93;10.63;;;7.10;99.90;;;;;;5016510;28;20537;-68
2022/01/19 12:18:46;;;;;;;15.20;10.90;;;7.10;99.90;;;;;;5015822;28;20530;-67
2022/01/19 12:21:16;;;;;;;12.70;11.40;;;6.90;99.90;;;;;;5015731;28;20966;-68
2022/01/19 12:23:44;;;;;;;12.27;10.20;;;6.90;99.90;;;;;;5015646;28;20450;-68
2022/01/19 12:26:12;;;;;;;14.10;9.60;;;7.10;99.90;;;;;;5015526;28;20465;-67
2022/01/19 12:28:45;;;;;;;10.90;9.67;;;7.20;99.90;;;;;;5015765;28;20827;-67
2022/01/19 12:31:37;;;;;;;13.83;10.40;;;7.30;99.90;;;;;;5015575;28;20481;-69
2022/01/19 12:34:20;;;;;;;13.03;10.17;;;7.50;99.90;;;;;;5015557;28;20464;-68
2022/01/19 12:36:50;;;;;;;10.80;9.80;;;7.50;99.90;;;;;;5015454;28;20469;-67
2022/01/19 12:39:45;;;;;;;11.70;9.57;;;7.70;99.90;;;;;;5015573;28;20486;-68
2022/01/19 12:42:16;;;;;;;10.23;9.03;;;7.90;99.90;;;;;;4979995;28;20465;-67
2022/01/19 12:44:53;;;;;;;10.73;9.73;;;8.10;99.90;;;;;;5015452;28;20435;-67
2022/01/19 12:47:46;;;;;;;15.10;10.30;;;8.40;99.90;;;;;;5015161;28;20440;-69
2022/01/19 12:50:39;;;;;;;10.33;9.23;;;8.30;99.90;;;;;;5015543;28;20453;-68
2022/01/19 12:53:23;;;;;;;10.57;8.40;;;8.50;99.90;;;;;;5015108;28;20486;-67
2022/01/19 12:55:53;;;;;;;11.60;9.30;;;8.50;99.90;;;;;;5015147;28;20802;-68
2022/01/19 12:58:24;;;;;;;10.77;9.60;;;8.40;99.90;;;;;;5015232;28;20455;-67
2022/01/19 13:00:55;;;;;;;12.10;10.10;;;8.40;99.90;;;;;;5015190;28;20505;-67
2022/01/19 13:03:25;;;;;;;11.10;9.77;;;8.40;99.90;;;;;;5015073;28;20456;-69
2022/01/19 13:05:55;;;;;;;11.13;9.63;;;8.30;99.90;;;;;;5014375;28;20453;-68
2022/01/19 13:08:28;;;;;;;9.80;8.40;;;8.30;99.90;;;;;;5015207;28;20442;-68
2022/01/19 13:11:03;;;;;;;8.90;8.00;;;8.40;99.90;;;;;;5015215;28;20478;-69
2022/01/19 13:13:30;;;;;;;9.97;8.50;;;8.40;99.90;;;;;;5014837;28;20508;-68
2022/01/19 13:15:59;;;;;;;11.90;8.27;;;8.30;99.90;;;;;;5014731;28;20458;-69
2022/01/19 13:18:32;;;;;;;9.33;7.90;;;8.20;99.90;;;;;;5015095;28;20460;-69
2022/01/19 13:21:03;;;;;;;8.57;7.67;;;8.20;99.90;;;;;;5014903;28;20477;-69
2022/01/19 13:23:30;;;;;;;11.70;8.20;;;8.20;99.90;;;;;;5014697;28;20449;-69
2022/01/19 13:25:59;;;;;;;8.27;7.50;;;8.10;99.90;;;;;;5014680;28;20545;-68
2022/01/19 13:28:26;;;;;;;9.00;7.33;;;8.00;99.90;;;;;;5014853;28;20449;-68
2022/01/19 13:30:56;;;;;;;7.93;7.23;;;8.00;99.90;;;;;;5014532;28;20512;-69
2022/01/19 13:33:26;;;;;;;10.10;7.53;;;7.90;99.90;;;;;;5014144;28;20933;-69
2022/01/19 13:36:03;;;;;;;8.73;7.20;;;7.80;99.90;;;;;;5014458;28;20507;-68
2022/01/19 13:38:30;;;;;;;7.90;7.20;;;7.60;99.90;;;;;;5014463;28;20445;-69
2022/01/19 13:41:05;;;;;;;6.90;6.00;;;7.60;99.90;;;;;;5014227;28;20477;-69
2022/01/19 13:43:36;;;;;;;6.83;6.13;;;7.50;99.90;;;;;;5015728;28;20453;-69
2022/01/19 13:46:13;;;;;;;7.43;6.57;;;7.60;99.90;;;;;;5015309;28;20453;-69
2022/01/19 13:48:44;;;;;;;7.70;5.80;;;7.60;99.90;;;;;;5015415;28;20562;-68
2022/01/19 13:51:14;;;;;;;6.10;5.50;;;7.70;99.90;;;;;;5015120;28;20524;-69
2022/01/19 13:53:43;;;;;;;5.43;4.93;;;7.70;99.90;;;;;;5015253;28;20473;-69
2022/01/19 13:56:11;;;;;;;5.93;5.40;;;7.70;99.90;;;;;;5014980;28;20459;-69
2022/01/19 13:58:40;;;;;;;5.73;5.10;;;7.50;99.90;;;;;;5014740;28;20454;-69
2022/01/19 14:01:12;;;;;;;5.77;5.27;;;7.40;99.90;;;;;;5015899;28;21004;-69
2022/01/19 14:03:49;;;;;;;6.33;5.47;;;7.20;99.90;;;;;;5015921;28;20496;-70
2022/01/19 14:06:24;;;;;;;5.33;4.70;;;7.20;99.90;;;;;;5016190;28;20444;-69
2022/01/19 14:09:03;;;;;;;5.30;4.90;;;7.20;99.90;;;;;;5016055;28;20930;-69
2022/01/19 14:11:30;;;;;;;6.23;5.30;;;7.10;99.90;;;;;;5016994;28;20475;-69
2022/01/19 14:14:02;;;;;;;6.07;5.47;;;7.10;99.90;;;;;;5016579;28;20477;-69
2022/01/19 14:16:35;;;;;;;5.97;5.37;;;7.10;99.90;;;;;;5016506;28;20540;-69
2022/01/19 14:19:19;;;;;;;6.00;5.40;;;7.10;99.90;;;;;;5019482;28;20500;-69
2022/01/19 14:21:59;;;;;;;6.03;5.53;;;7.10;99.90;;;;;;5017867;28;20481;-69
2022/01/19 14:24:27;;;;;;;7.17;6.13;;;7.10;99.90;;;;;;5015173;28;20441;-68
2022/01/19 14:26:54;;;;;;;6.13;5.53;;;7.20;99.90;;;;;;5014370;28;20460;-68
2022/01/19 14:29:22;;;;;;;6.27;5.67;;;7.20;99.90;;;;;;5014305;28;20967;-69
2022/01/19 14:31:51;;;;;;;6.60;6.00;;;7.10;99.90;;;;;;5014109;28;20488;-69
2022/01/19 14:34:34;;;;;;;7.97;6.20;;;7.10;99.90;;;;;;5014526;28;20584;-69
2022/01/19 14:37:14;;;;;;;7.00;5.93;;;7.10;99.90;;;;;;5014928;28;20437;-68
2022/01/19 14:39:54;;;;;;;7.37;5.70;;;7.20;99.90;;;;;;5014656;28;20450;-68
2022/01/19 14:42:26;;;;;;;8.80;6.40;;;7.30;99.90;;;;;;5014458;28;20475;-68
2022/01/19 14:45:01;;;;;;;7.67;6.17;;;7.40;99.90;;;;;;5014578;28;20447;-69
2022/01/19 14:47:37;;;;;;;6.70;6.00;;;7.40;99.90;;;;;;5014338;28;20445;-69
2022/01/19 14:50:23;;;;;;;9.03;5.60;;;7.40;99.90;;;;;;5014739;28;20528;-68
2022/01/19 14:52:52;;;;;;;6.70;5.40;;;7.50;99.90;;;;;;5014507;28;20446;-68
2022/01/19 14:55:20;;;;;;;7.67;5.70;;;7.50;99.90;;;;;;5014576;28;20458;-68
2022/01/19 14:57:47;;;;;;;9.93;6.40;;;7.50;99.90;;;;;;5014703;28;20454;-69
2022/01/19 15:00:16;;;;;;;6.50;5.53;;;7.60;99.90;;;;;;5015049;28;20453;-69
2022/01/19 15:02:43;;;;;;;5.90;5.30;;;7.50;99.90;;;;;;5014123;28;20462;-69
2022/01/19 15:05:10;;;;;;;8.57;6.10;;;7.50;99.90;;;;;;5017566;28;20459;-69
2022/01/19 15:07:40;;;;;;;6.50;5.90;;;7.40;99.90;;;;;;5018737;28;20457;-67
2022/01/19 15:10:08;;;;;;;8.23;6.90;;;7.30;99.90;;;;;;5018636;28;20503;-68
2022/01/19 15:12:37;;;;;;;6.80;6.10;;;7.30;99.90;;;;;;5018798;28;20877;-69
2022/01/19 15:15:04;;;;;;;7.97;6.90;;;7.20;99.90;;;;;;5017932;28;20527;-67
2022/01/19 15:17:31;;;;;;;7.77;7.00;;;7.20;99.90;;;;;;5018431;28;20460;-68
2022/01/19 15:19:58;;;;;;;7.93;7.13;;;7.10;99.90;;;;;;5028649;28;20511;-69
2022/01/19 15:22:26;;;;;;;11.03;8.63;;;7.10;99.90;;;;;;5029551;28;20470;-70
2022/01/19 15:24:55;;;;;;;8.40;7.37;;;7.10;99.90;;;;;;5028681;28;20532;-68
2022/01/19 15:27:21;;;;;;;9.23;7.33;;;7.00;99.90;;;;;;5019953;28;20458;-69
2022/01/19 15:29:48;;;;;;;7.83;6.23;;;7.00;99.90;;;;;;5017928;28;20468;-69
2022/01/19 15:32:16;;;;;;;8.07;6.67;;;7.00;99.90;;;;;;5017364;28;20560;-68
2022/01/19 15:34:42;;;;;;;9.20;7.60;;;7.00;99.90;;;;;;5017244;28;20500;-68
2022/01/19 15:37:09;;;;;;;9.27;8.03;;;6.90;99.90;;;;;;5017584;28;20461;-68
2022/01/19 15:39:38;;;;;;;7.67;6.93;;;6.90;99.90;;;;;;5017206;28;20457;-68
2022/01/19 15:42:07;;;;;;;8.03;7.20;;;6.90;99.90;;;;;;5017267;28;20974;-68
2022/01/19 15:44:34;;;;;;;10.80;7.47;;;6.90;99.90;;;;;;5017578;28;20454;-69
2022/01/19 15:47:00;;;;;;;8.87;6.93;;;6.80;99.90;;;;;;5016364;28;20454;-68
2022/01/19 15:49:27;;;;;;;9.50;7.37;;;6.80;99.90;;;;;;5016685;28;20457;-68
2022/01/19 15:51:55;;;;;;;8.57;6.83;;;6.80;99.90;;;;;;5016680;28;20478;-68
2022/01/19 15:54:22;;;;;;;10.37;7.90;;;6.80;99.90;;;;;;5016363;28;20569;-68
2022/01/19 15:56:50;;;;;;;9.77;8.00;;;6.80;99.90;;;;;;5016669;28;20460;-68
2022/01/19 15:59:19;;;;;;;7.87;6.73;;;6.80;99.90;;;;;;5016390;28;20453;-68
2022/01/19 16:01:46;;;;;;;10.10;7.63;;;6.80;99.90;;;;;;5017011;28;20488;-68
2022/01/19 16:04:13;;;;;;;8.30;6.33;;;6.80;99.90;;;;;;5018200;28;20475;-68
2022/01/19 16:06:43;;;;;;;8.20;6.30;;;6.80;99.90;;;;;;5017445;28;20458;-68
2022/01/19 16:09:10;;;;;;;9.40;7.30;;;6.70;99.90;;;;;;5018517;28;20553;-69
2022/01/19 16:11:37;;;;;;;13.67;9.13;;;6.70;99.90;;;;;;5017856;28;20477;-68
2022/01/19 16:14:04;;;;;;;9.90;7.67;;;6.70;99.90;;;;;;5017507;28;20484;-67
2022/01/19 16:16:33;;;;;;;8.50;7.67;;;6.70;99.90;;;;;;5015793;28;20453;-69
2022/01/19 16:19:00;;;;;;;8.67;7.37;;;6.70;99.90;;;;;;5016080;28;20944;-69
2022/01/19 16:21:27;;;;;;;8.57;7.40;;;6.60;99.90;;;;;;5016144;28;20479;-69
2022/01/19 16:26:38;;;;;;;13.07;9.60;;;6.60;99.90;;;;;;5016482;28;20923;-68
2022/01/19 16:29:05;;;;;;;22.30;13.67;;;6.60;99.90;;;;;;5015804;28;20943;-68
2022/01/19 16:31:33;;;;;;;11.30;9.47;;;6.60;99.90;;;;;;5016173;28;20500;-69
2022/01/19 16:34:00;;;;;;;11.13;8.90;;;6.60;99.90;;;;;;5016623;28;20480;-69
2022/01/19 16:36:28;;;;;;;8.57;7.63;;;6.60;99.90;;;;;;5018690;28;20453;-67
2022/01/19 16:38:54;;;;;;;10.20;9.10;;;6.60;99.90;;;;;;5015854;28;20457;-67
2022/01/19 16:41:27;;;;;;;10.87;9.77;;;6.60;99.90;;;;;;5015466;28;20989;-68
2022/01/19 16:43:53;;;;;;;9.20;8.40;;;6.60;99.90;;;;;;5016041;28;20809;-68
2022/01/19 16:46:22;;;;;;;9.80;7.70;;;6.50;99.90;;;;;;5015475;28;20825;-68
2022/01/19 16:48:52;;;;;;;11.13;8.73;;;6.50;99.90;;;;;;5015489;28;20480;-68
2022/01/19 16:51:18;;;;;;;8.67;7.03;;;6.50;99.90;;;;;;5016069;28;20477;-68
2022/01/19 16:53:45;;;;;;;8.60;6.70;;;6.50;99.90;;;;;;5015513;28;20500;-68
2022/01/19 16:56:12;;;;;;;8.00;7.10;;;6.50;99.90;;;;;;5015655;28;20453;-68
2022/01/19 16:58:39;;;;;;;9.70;8.00;;;6.50;99.90;;;;;;5015737;28;20963;-68
2022/01/19 17:01:10;;;;;;;10.97;8.70;;;6.50;99.90;;;;;;5015835;28;20926;-68
2022/01/19 17:03:39;;;;;;;9.33;7.43;;;6.50;99.90;;;;;;5015566;28;20961;-69
2022/01/19 17:06:10;;;;;;;9.73;7.83;;;6.40;99.90;;;;;;5015826;28;20544;-68
2022/01/19 17:08:37;;;;;;;10.77;8.43;;;6.50;99.90;;;;;;5015520;28;20457;-67
2022/01/19 17:11:07;;;;;;;10.23;8.50;;;6.40;99.90;;;;;;5015110;28;20473;-68
2022/01/19 17:13:37;;;;;;;8.63;7.13;;;6.40;99.90;;;;;;5015288;28;20457;-68
2022/01/19 17:16:15;;;;;;;10.20;7.27;;;6.40;99.90;;;;;;5015717;28;20449;-68
2022/01/19 17:18:44;;;;;;;8.73;7.80;;;6.40;99.90;;;;;;5015649;28;20433;-68
2022/01/19 17:21:13;;;;;;;9.53;7.80;;;6.40;99.90;;;;;;5015532;28;20476;-71
2022/01/19 17:23:41;;;;;;;8.30;7.40;;;6.30;99.90;;;;;;5015133;28;20449;-68
2022/01/19 17:26:08;;;;;;;8.50;7.30;;;6.30;99.90;;;;;;5015793;28;20457;-69
2022/01/19 17:28:35;;;;;;;7.00;6.20;;;6.20;99.90;;;;;;5015003;28;20457;-69
2022/01/19 17:31:02;;;;;;;8.30;7.20;;;6.30;99.90;;;;;;5014492;28;20982;-68
2022/01/19 17:33:29;;;;;;;8.00;6.40;;;6.20;99.90;;;;;;5014371;28;20937;-69
2022/01/19 17:35:55;;;;;;;7.97;6.90;;;6.20;99.90;;;;;;5015774;28;20449;-69
2022/01/19 17:38:23;;;;;;;8.20;6.23;;;6.10;99.90;;;;;;5014850;28;20940;-69
2022/01/19 17:40:50;;;;;;;8.83;7.17;;;6.10;99.90;;;;;;5014611;28;20477;-69
2022/01/19 17:43:19;;;;;;;7.50;6.03;;;6.10;99.90;;;;;;5015248;28;20854;-69
2022/01/19 17:45:53;;;;;;;7.13;6.10;;;6.10;99.90;;;;;;5014813;28;20454;-69
2022/01/19 17:48:40;;;;;;;6.83;6.10;;;6.10;99.90;;;;;;5015036;28;20434;-69
2022/01/19 17:51:29;;;;;;;9.57;7.00;;;6.10;99.90;;;;;;5015467;28;20469;-69
2022/01/19 17:53:57;;;;;;;9.57;7.30;;;6.10;99.90;;;;;;5015605;28;20465;-69
2022/01/19 17:56:24;;;;;;;7.93;6.70;;;6.10;99.90;;;;;;5014649;28;20959;-69
2022/01/19 17:58:51;;;;;;;7.07;6.37;;;6.10;99.90;;;;;;5015008;28;20453;-69
2022/01/19 18:01:19;;;;;;;6.80;6.13;;;6.10;99.90;;;;;;5014871;28;20492;-69
2022/01/19 18:03:45;;;;;;;8.40;6.73;;;6.10;99.90;;;;;;5014905;28;20848;-69
2022/01/19 18:06:13;;;;;;;6.67;5.67;;;6.10;99.90;;;;;;5015296;28;20457;-69
2022/01/19 18:08:40;;;;;;;8.53;7.27;;;6.10;99.90;;;;;;5014953;28;20485;-69
2022/01/19 18:11:09;;;;;;;8.90;8.00;;;6.20;99.90;;;;;;5015115;28;20475;-69